Aeroporto :
LOGIN :

Iscrizione | Disclaimer

   EN    FR    IT 

 










Sommario :    VFR   VFR Marginale   IFR   IFR Intensivo   IFR Molto Intensivo
Visibilità : 
Base nubi : 
>= 8 km
>= 3000ft
5 / 8 km
1000 / 3000 ft
1500m / 5 km
500 / 1000 ft
800 / 1500m
200 / 500 ft
< 800m
< 200 ft
Simboli :   Temporali  Nebbia  Neve Forte  Precipitazioni Forti  Vento > 20 kt
SIGMETs :   Varie  Temporali  Ghiacco  Turbolenza  Onda orograficha  Ceneri Vulcaniche







- Altitudine del aeroporto : 400 ft
- Codice IATA : BNX


LQBK - Banja Luka

ULTIMO METAR :
  • 201330Z 01006KT 340V050 CAVOK 15/M00 Q1023 NOSIG

METARs OBSOLETI :
  • 201300Z 36006KT 330V050 CAVOK 16/M01 Q1023 NOSIG
  • 201230Z 01007KT CAVOK 15/M02 Q1023 NOSIG
  • 201200Z 34006KT 310V070 CAVOK 15/M02 Q1023 NOSIG
  • 201130Z 33006KT CAVOK 14/M01 Q1023 NOSIG
  • 201100Z 35007KT 330V040 CAVOK 13/M00 Q1023 NOSIG

TAF TAF LQBK
Valido dal 20 a 12 ore il 21 a 12 ore UTC


201100Z 2012/2112 VRB02KT CAVOK TX16/2013Z TNM01/2106Z
PROB30 2103/2108 3000 BR
Nessun NOTAM noto per questo aeroporto.



MetMap, La meteo Aeronautica in un colpo d'occhio ! - Copyright ORBIFLY Dicembre 2007 - Disclaimer

ORBIFLY MET'MAP TEAM :

Programmazione e sviluppo : Alexandra Zaïnal
Concezione e sviluppo : Baudouin d'Aumeries
Co-Programmazione e sviluppo : Marc-Olivier Méhu
Supporto tecnico e logistico : Manuel Goepfert
Aiuto per la traduzione : Arnaldo La Scala

Contatto : metmap@orbifly.com




FONTI E CREDITI :

   NOAA